Time;durP1;ratioP1;P1;durP2;ratioP2;P2;SDS_P1;SDS_P2;PMS_P1;PMS_P2;Temp;Humidity;BMP_temperature;BMP_pressure;BME280_temperature;BME280_humidity;BME280_pressure;Samples;Min_cycle;Max_cycle;Signal;HPM_P1;HPM_P2
2023/03/21 00:02:17;;;;;;;4.07;3.20;;;12.00;1.00;;;;;;5098035;28;20433;-41
2023/03/21 00:04:43;;;;;;;3.30;3.00;;;12.00;1.00;;;;;;5097508;28;20195;-44
2023/03/21 00:07:08;;;;;;;3.40;3.10;;;12.00;1.00;;;;;;5099436;28;20261;-43
2023/03/21 00:09:34;;;;;;;4.20;2.90;;;11.90;1.00;;;;;;5098786;28;20249;-43
2023/03/21 00:12:00;;;;;;;3.80;2.67;;;11.90;1.00;;;;;;5099176;28;20434;-44
2023/03/21 00:14:29;;;;;;;3.20;3.00;;;11.90;1.00;;;;;;5099084;28;20200;-43
2023/03/21 00:16:55;;;;;;;3.07;2.70;;;11.90;1.00;;;;;;5097971;28;20437;-42
2023/03/21 00:19:23;;;;;;;4.33;2.60;;;11.90;1.00;;;;;;5098868;28;20470;-47
2023/03/21 00:21:51;;;;;;;4.27;3.13;;;11.80;1.00;;;;;;5098986;28;20434;-43
2023/03/21 00:24:17;;;;;;;3.40;2.87;;;11.80;1.00;;;;;;5099030;28;20847;-42
2023/03/21 00:26:43;;;;;;;3.53;2.90;;;11.80;1.00;;;;;;5097955;28;20823;-44
2023/03/21 00:29:09;;;;;;;3.47;2.73;;;11.80;1.00;;;;;;5098558;28;20446;-43
2023/03/21 00:31:34;;;;;;;3.50;2.93;;;11.80;1.00;;;;;;5097784;28;20437;-43
2023/03/21 00:34:00;;;;;;;2.90;2.53;;;11.80;1.00;;;;;;5098606;28;20555;-41
2023/03/21 00:36:26;;;;;;;4.00;3.10;;;11.80;1.00;;;;;;5098196;28;20180;-40
2023/03/21 00:38:52;;;;;;;3.07;2.77;;;11.70;1.00;;;;;;5098619;28;20484;-42
2023/03/21 00:41:17;;;;;;;4.63;2.80;;;11.70;1.00;;;;;;5098530;28;20184;-43
2023/03/21 00:43:43;;;;;;;2.97;2.73;;;11.70;1.00;;;;;;5097984;28;20431;-44
2023/03/21 00:46:09;;;;;;;3.87;3.50;;;11.70;1.00;;;;;;5098021;28;20185;-43
2023/03/21 00:48:35;;;;;;;3.67;2.90;;;11.70;1.00;;;;;;5097065;28;20185;-43
2023/03/21 00:51:00;;;;;;;3.23;2.93;;;11.70;1.00;;;;;;5095881;28;20426;-42
2023/03/21 00:53:27;;;;;;;3.00;2.63;;;11.60;1.00;;;;;;5096578;28;20240;-44
2023/03/21 00:55:52;;;;;;;3.30;3.00;;;11.60;1.00;;;;;;5096496;28;20462;-42
2023/03/21 00:58:18;;;;;;;2.77;2.53;;;11.60;1.00;;;;;;5095379;28;20418;-42
2023/03/21 01:00:45;;;;;;;3.90;3.17;;;11.60;1.00;;;;;;5095999;28;20251;-45
2023/03/21 01:03:13;;;;;;;2.80;2.60;;;11.60;1.00;;;;;;5095032;28;20210;-44
2023/03/21 01:06:03;;;;;;;3.10;2.80;;;11.60;1.00;;;;;;5097200;28;20499;-45
2023/03/21 01:08:30;;;;;;;3.60;3.30;;;11.50;1.00;;;;;;5096415;28;20537;-42
2023/03/21 01:11:04;;;;;;;3.60;3.30;;;11.50;1.00;;;;;;5096966;28;20445;-45
2023/03/21 01:13:30;;;;;;;3.17;2.87;;;11.50;1.90;;;;;;5097537;28;20430;-42
2023/03/21 01:15:56;;;;;;;3.37;3.07;;;11.50;1.40;;;;;;5097817;28;20433;-43
2023/03/21 01:18:26;;;;;;;4.83;3.13;;;11.50;2.10;;;;;;5098175;28;20545;-43
2023/03/21 01:20:52;;;;;;;4.80;3.37;;;11.40;6.80;;;;;;5098396;28;20493;-44
2023/03/21 01:23:18;;;;;;;3.80;2.77;;;11.40;9.50;;;;;;5097002;28;20479;-44
2023/03/21 01:25:44;;;;;;;3.47;3.13;;;11.40;13.90;;;;;;5097864;28;20809;-43
2023/03/21 01:28:09;;;;;;;3.30;3.00;;;11.40;20.00;;;;;;5096706;28;20184;-43
2023/03/21 01:30:36;;;;;;;3.97;3.30;;;11.40;25.40;;;;;;5097849;28;20180;-44
2023/03/21 01:33:01;;;;;;;4.40;3.40;;;11.40;29.80;;;;;;5096931;28;20207;-44
2023/03/21 01:35:27;;;;;;;5.80;3.37;;;11.40;34.10;;;;;;5096898;28;20832;-43
2023/03/21 01:37:53;;;;;;;4.20;3.40;;;11.40;42.00;;;;;;5097282;28;20534;-43
2023/03/21 01:40:24;;;;;;;3.30;2.90;;;11.40;50.80;;;;;;5096749;28;20208;-43
2023/03/21 01:42:51;;;;;;;3.83;3.50;;;11.40;57.00;;;;;;5097060;28;20566;-43
2023/03/21 01:45:54;;;;;;;3.33;2.60;;;11.40;61.60;;;;;;5095334;28;20455;-45
2023/03/21 01:48:20;;;;;;;3.00;2.70;;;11.40;69.30;;;;;;5096404;28;20430;-44
2023/03/21 01:50:46;;;;;;;4.00;2.90;;;11.30;81.20;;;;;;5096038;28;20431;-44
2023/03/21 01:53:13;;;;;;;3.30;3.00;;;11.40;93.80;;;;;;5095822;28;20518;-44
2023/03/21 01:55:39;;;;;;;3.30;3.00;;;11.30;99.00;;;;;;5078649;28;20685;-44
2023/03/21 01:58:05;;;;;;;3.17;2.83;;;11.40;99.90;;;;;;5096396;28;20430;-42
2023/03/21 02:00:32;;;;;;;3.50;3.10;;;11.40;99.90;;;;;;5096920;28;20871;-43
2023/03/21 02:03:00;;;;;;;3.13;2.83;;;11.30;99.90;;;;;;5095583;28;20422;-43
2023/03/21 02:05:57;;;;;;;3.03;2.73;;;11.30;99.90;;;;;;5095433;28;20418;-44
2023/03/21 02:08:22;;;;;;;4.20;3.27;;;11.30;99.90;;;;;;5097408;28;20438;-43
2023/03/21 02:10:48;;;;;;;6.10;3.10;;;11.30;99.90;;;;;;5096806;28;20770;-45
2023/03/21 02:13:14;;;;;;;4.17;3.33;;;11.20;99.90;;;;;;5096442;28;20172;-43
2023/03/21 02:15:46;;;;;;;3.60;3.30;;;11.20;99.90;;;;;;5097016;28;20433;-44
2023/03/21 02:19:02;;;;;;;4.13;3.50;;;11.20;99.90;;;;;;5096872;28;20434;-44
2023/03/21 02:21:50;;;;;;;3.87;3.10;;;11.20;99.90;;;;;;5054503;28;20450;-43
2023/03/21 02:24:55;;;;;;;3.40;3.10;;;11.10;99.90;;;;;;5096889;28;20434;-42
2023/03/21 02:27:22;;;;;;;3.23;2.93;;;11.10;99.90;;;;;;5058475;28;20466;-44
2023/03/21 02:30:03;;;;;;;4.20;3.00;;;11.10;99.90;;;;;;5096390;28;20453;-44
2023/03/21 02:33:01;;;;;;;3.13;2.83;;;11.10;99.90;;;;;;5095263;28;20803;-43
2023/03/21 02:35:34;;;;;;;3.87;3.47;;;11.10;99.90;;;;;;5051637;28;20432;-44
2023/03/21 02:38:08;;;;;;;4.27;2.83;;;11.10;99.90;;;;;;5096860;28;20429;-48
2023/03/21 02:40:38;;;;;;;3.50;3.03;;;11.10;99.90;;;;;;5077430;28;20902;-43
2023/03/21 02:43:21;;;;;;;3.30;2.93;;;11.00;99.90;;;;;;5094568;28;20477;-43
2023/03/21 02:46:07;;;;;;;3.77;3.37;;;11.00;99.90;;;;;;5074807;28;20433;-43
2023/03/21 02:49:07;;;;;;;4.07;3.67;;;11.00;99.90;;;;;;5095020;28;20438;-44
2023/03/21 02:54:56;;;;;;;3.90;3.40;;;11.00;99.90;;;;;;5096134;28;20429;-44
2023/03/21 02:57:22;;;;;;;3.67;3.30;;;11.00;99.90;;;;;;5094208;28;20430;-44
2023/03/21 02:59:51;;;;;;;3.33;3.03;;;10.90;99.90;;;;;;5096197;28;20934;-43
2023/03/21 03:02:22;;;;;;;4.20;3.17;;;10.90;99.90;;;;;;5094174;28;20499;-43
2023/03/21 03:04:47;;;;;;;3.30;3.00;;;10.90;99.90;;;;;;5096081;28;20502;-44
2023/03/21 03:07:16;;;;;;;3.00;2.80;;;10.90;99.90;;;;;;5095146;28;20438;-44
2023/03/21 03:10:20;;;;;;;3.40;3.10;;;10.90;99.90;;;;;;5094867;28;20168;-44
2023/03/21 03:13:05;;;;;;;3.50;2.90;;;10.90;99.90;;;;;;5091278;28;20464;-43
2023/03/21 03:15:46;;;;;;;3.73;3.37;;;10.80;99.90;;;;;;5095430;28;20426;-42
2023/03/21 03:18:26;;;;;;;3.60;3.27;;;10.90;99.90;;;;;;5093242;28;20475;-45
2023/03/21 03:20:58;;;;;;;4.03;3.30;;;10.80;99.90;;;;;;5092533;28;20434;-44
2023/03/21 03:23:41;;;;;;;4.33;3.93;;;10.80;99.90;;;;;;5093417;28;20431;-44
2023/03/21 03:26:08;;;;;;;4.33;2.87;;;10.80;99.90;;;;;;5091939;28;20482;-43
2023/03/21 03:28:38;;;;;;;3.93;3.20;;;10.80;99.90;;;;;;5094917;28;20550;-43
2023/03/21 03:31:07;;;;;;;3.57;3.27;;;10.80;99.90;;;;;;5094492;28;20660;-43
2023/03/21 03:33:34;;;;;;;3.43;3.10;;;10.80;99.90;;;;;;5093698;28;20847;-42
2023/03/21 03:36:00;;;;;;;3.90;3.50;;;10.70;99.90;;;;;;5093650;28;20446;-44
2023/03/21 03:38:26;;;;;;;3.70;3.40;;;10.70;99.90;;;;;;5094029;28;20696;-43
2023/03/21 03:41:00;;;;;;;3.80;3.40;;;10.70;99.90;;;;;;5092408;28;20816;-45
2023/03/21 03:43:32;;;;;;;4.90;3.40;;;10.70;99.90;;;;;;5094091;28;20819;-43
2023/03/21 03:46:04;;;;;;;3.80;3.30;;;10.70;99.90;;;;;;5093084;28;20434;-43
2023/03/21 03:48:34;;;;;;;3.77;3.13;;;10.60;1.00;;;;;;5093901;28;20423;-44
2023/03/21 03:51:34;;;;;;;3.90;3.50;;;10.60;1.00;;;;;;5094224;28;20820;-43
2023/03/21 03:54:16;;;;;;;4.13;3.60;;;10.60;1.00;;;;;;5021374;28;20444;-42
2023/03/21 03:56:42;;;;;;;4.53;4.13;;;10.60;1.00;;;;;;5082932;28;20800;-44
2023/03/21 03:59:08;;;;;;;4.37;4.00;;;10.60;1.00;;;;;;5093987;28;20469;-43
2023/03/21 04:01:34;;;;;;;3.57;3.27;;;10.50;1.00;;;;;;5093428;28;20449;-43
2023/03/21 04:04:00;;;;;;;4.57;3.50;;;10.50;1.00;;;;;;5095673;28;20187;-43
2023/03/21 04:06:27;;;;;;;5.23;3.53;;;10.50;1.00;;;;;;5097041;28;20426;-42
2023/03/21 04:08:55;;;;;;;3.97;3.53;;;10.50;1.00;;;;;;5097713;28;20434;-42
2023/03/21 04:11:21;;;;;;;3.90;3.40;;;10.50;1.00;;;;;;5098532;28;20453;-42
2023/03/21 04:13:47;;;;;;;4.37;3.97;;;10.40;1.00;;;;;;5097307;28;20832;-44
2023/03/21 04:16:13;;;;;;;3.80;3.50;;;10.40;1.00;;;;;;5098000;28;20499;-44
2023/03/21 04:18:39;;;;;;;4.50;3.80;;;10.40;1.00;;;;;;5097728;28;20515;-42
2023/03/21 04:21:12;;;;;;;3.90;3.50;;;10.40;1.00;;;;;;5096231;28;20544;-43
2023/03/21 04:23:38;;;;;;;3.53;3.23;;;10.30;1.00;;;;;;5097611;28;20515;-43
2023/03/21 04:26:05;;;;;;;5.73;5.13;;;10.30;1.00;;;;;;5096942;28;20478;-41
2023/03/21 04:28:32;;;;;;;4.57;4.17;;;10.30;1.00;;;;;;5098156;28;21079;-43
2023/03/21 04:30:58;;;;;;;4.60;4.20;;;10.20;1.00;;;;;;5096905;28;20434;-43
2023/03/21 04:33:26;;;;;;;5.40;4.47;;;10.20;1.00;;;;;;5096702;28;20436;-42
2023/03/21 04:35:55;;;;;;;4.07;3.73;;;10.20;1.00;;;;;;5095975;28;20438;-42
2023/03/21 04:38:22;;;;;;;4.60;4.10;;;10.10;1.00;;;;;;5096467;28;20471;-42
2023/03/21 04:40:48;;;;;;;3.93;3.63;;;10.10;1.00;;;;;;5096251;28;20710;-41
2023/03/21 04:43:14;;;;;;;4.27;3.90;;;10.00;1.00;;;;;;5095015;28;20854;-44
2023/03/21 04:45:39;;;;;;;3.87;3.50;;;9.90;1.00;;;;;;5085677;28;20771;-45
2023/03/21 04:48:05;;;;;;;4.80;4.00;;;9.90;1.00;;;;;;5074937;28;20423;-42
2023/03/21 04:50:31;;;;;;;6.73;4.03;;;9.90;1.00;;;;;;5076066;28;20192;-44
2023/03/21 04:52:57;;;;;;;3.83;3.43;;;9.80;1.00;;;;;;5077743;28;20187;-42
2023/03/21 04:55:25;;;;;;;3.83;3.53;;;9.70;15.60;;;;;;5076794;28;20204;-43
2023/03/21 04:57:50;;;;;;;4.40;4.00;;;9.70;35.40;;;;;;5076600;28;20419;-43
2023/03/21 05:00:16;;;;;;;4.10;3.50;;;9.60;62.80;;;;;;5076692;28;20581;-43
2023/03/21 05:02:42;;;;;;;4.90;4.40;;;9.60;98.50;;;;;;5076553;28;20181;-42
2023/03/21 05:05:10;;;;;;;4.93;3.77;;;9.60;99.90;;;;;;5077060;28;20427;-44
2023/03/21 05:07:39;;;;;;;4.37;3.97;;;9.50;99.90;;;;;;5077848;28;20173;-43
2023/03/21 05:10:07;;;;;;;4.07;3.67;;;9.50;99.90;;;;;;5077351;28;20443;-42
2023/03/21 05:12:32;;;;;;;3.50;3.20;;;9.40;99.90;;;;;;5076846;28;20423;-44
2023/03/21 05:14:58;;;;;;;5.47;3.90;;;9.40;99.90;;;;;;5076223;28;20461;-42
2023/03/21 05:17:27;;;;;;;4.80;3.27;;;9.30;99.90;;;;;;5076672;28;20183;-42
2023/03/21 05:19:55;;;;;;;3.73;3.40;;;9.30;99.90;;;;;;5076139;28;20244;-45
2023/03/21 05:22:23;;;;;;;4.83;3.50;;;9.30;99.90;;;;;;5076305;28;20399;-44
2023/03/21 05:24:49;;;;;;;3.70;3.40;;;9.30;99.90;;;;;;5075585;28;20419;-45
2023/03/21 05:27:34;;;;;;;4.73;4.17;;;9.20;99.90;;;;;;5073952;28;20723;-43
2023/03/21 05:30:05;;;;;;;4.50;4.10;;;9.20;99.90;;;;;;5073733;28;20443;-44
2023/03/21 05:32:31;;;;;;;4.90;4.40;;;9.20;99.90;;;;;;5075507;28;20820;-43
2023/03/21 05:34:57;;;;;;;4.80;4.33;;;9.20;99.90;;;;;;5074170;28;20567;-44
2023/03/21 05:37:23;;;;;;;5.33;4.83;;;9.20;99.90;;;;;;5073395;28;20510;-45
2023/03/21 05:39:49;;;;;;;4.80;4.40;;;9.20;99.90;;;;;;5072168;28;20231;-46
2023/03/21 05:42:17;;;;;;;4.90;4.40;;;9.20;99.90;;;;;;5073300;28;20411;-45
2023/03/21 05:44:43;;;;;;;5.17;4.70;;;9.30;99.90;;;;;;5071694;28;20419;-42
2023/03/21 05:47:08;;;;;;;4.67;4.27;;;9.30;99.90;;;;;;5072509;28;20892;-44
2023/03/21 05:49:34;;;;;;;5.20;4.70;;;9.30;99.90;;;;;;5073716;28;20446;-45
2023/03/21 05:52:00;;;;;;;5.00;4.30;;;9.40;99.90;;;;;;5074807;28;20219;-43
2023/03/21 05:54:25;;;;;;;5.00;4.50;;;9.40;99.90;;;;;;5072768;28;20176;-42
2023/03/21 05:56:51;;;;;;;5.17;3.90;;;9.50;99.90;;;;;;5069188;28;20200;-44
2023/03/21 05:59:16;;;;;;;5.30;4.30;;;9.60;99.90;;;;;;5070534;28;20273;-44
2023/03/21 06:01:42;;;;;;;5.00;4.50;;;9.60;99.90;;;;;;5070864;28;20191;-42
2023/03/21 06:04:07;;;;;;;4.73;4.23;;;9.70;99.90;;;;;;5072003;28;20241;-43
2023/03/21 06:06:35;;;;;;;4.77;4.27;;;9.80;99.90;;;;;;5072809;28;20212;-43
2023/03/21 06:09:01;;;;;;;5.00;4.23;;;9.80;99.90;;;;;;5072115;28;20188;-47
2023/03/21 06:11:32;;;;;;;4.87;4.23;;;9.90;99.90;;;;;;5070777;28;20797;-45
2023/03/21 06:13:57;;;;;;;4.90;4.00;;;10.00;99.90;;;;;;5051252;28;20514;-43
2023/03/21 06:16:23;;;;;;;5.60;4.63;;;10.10;99.90;;;;;;5069059;28;20606;-46
2023/03/21 06:18:49;;;;;;;5.40;3.93;;;10.20;39.40;;;;;;5068826;28;20209;-44
2023/03/21 06:21:15;;;;;;;4.27;3.73;;;10.30;1.00;;;;;;5067867;28;20268;-42
2023/03/21 06:23:40;;;;;;;5.00;4.50;;;10.40;1.00;;;;;;5064525;28;20173;-44
2023/03/21 06:26:06;;;;;;;4.73;4.23;;;10.40;1.00;;;;;;5069060;28;20247;-43
2023/03/21 06:28:32;;;;;;;5.87;4.60;;;10.50;1.00;;;;;;5068765;28;20560;-42
2023/03/21 06:30:57;;;;;;;5.40;3.87;;;10.50;1.00;;;;;;5066420;28;20451;-42
2023/03/21 06:33:24;;;;;;;4.00;3.70;;;10.60;1.00;;;;;;5068183;28;20252;-42
2023/03/21 06:35:54;;;;;;;4.50;4.10;;;10.70;1.00;;;;;;5072236;28;20267;-45
2023/03/21 06:38:19;;;;;;;4.50;3.80;;;10.80;1.00;;;;;;5071555;28;20724;-44
2023/03/21 06:40:46;;;;;;;3.90;3.60;;;11.10;1.00;;;;;;5070071;28;20431;-44
2023/03/21 06:43:12;;;;;;;5.33;4.20;;;11.40;99.90;;;;;;5067824;28;20672;-43
2023/03/21 06:45:37;;;;;;;3.83;3.43;;;11.70;99.90;;;;;;5066034;28;20534;-44
2023/03/21 06:48:03;;;;;;;3.67;3.37;;;12.00;99.90;;;;;;5066762;28;20808;-43
2023/03/21 06:50:29;;;;;;;3.83;3.40;;;12.20;99.90;;;;;;5066997;28;20205;-46
2023/03/21 06:52:56;;;;;;;4.00;3.60;;;12.40;51.10;;;;;;5064793;28;20420;-45
2023/03/21 06:55:25;;;;;;;3.90;3.13;;;12.60;19.40;;;;;;5067814;28;20208;-44
2023/03/21 06:57:52;;;;;;;3.60;3.30;;;12.80;1.00;;;;;;5071143;28;20481;-46
2023/03/21 07:00:18;;;;;;;3.70;3.40;;;13.10;1.00;;;;;;5070383;28;20474;-44
2023/03/21 07:02:45;;;;;;;8.07;3.80;;;13.30;1.00;;;;;;5069777;28;20823;-44
2023/03/21 07:05:11;;;;;;;3.50;3.20;;;13.50;1.00;;;;;;5068865;28;20439;-46
2023/03/21 07:07:36;;;;;;;4.70;3.53;;;13.70;1.00;;;;;;5072043;28;20415;-44
2023/03/21 07:10:03;;;;;;;4.27;3.47;;;14.00;1.00;;;;;;5072136;28;20183;-44
2023/03/21 07:12:29;;;;;;;3.40;3.10;;;14.20;1.00;;;;;;5070238;28;20698;-45
2023/03/21 07:14:54;;;;;;;3.87;3.57;;;14.40;1.00;;;;;;5066464;28;20454;-44
2023/03/21 07:17:20;;;;;;;3.50;2.83;;;14.70;1.00;;;;;;5068599;28;20169;-43
2023/03/21 07:19:45;;;;;;;4.10;3.50;;;14.90;1.00;;;;;;5069698;28;20517;-42
2023/03/21 07:22:11;;;;;;;3.23;2.97;;;15.20;1.00;;;;;;5069745;28;20237;-44
2023/03/21 07:24:36;;;;;;;3.13;2.93;;;15.40;1.00;;;;;;5069252;28;20500;-43
2023/03/21 07:27:02;;;;;;;3.10;2.80;;;15.70;1.00;;;;;;5068348;28;20255;-43
2023/03/21 07:29:28;;;;;;;4.30;3.00;;;16.10;1.00;;;;;;5069401;28;20260;-42
2023/03/21 07:31:53;;;;;;;3.67;3.37;;;16.50;1.00;;;;;;5071999;28;20181;-44
2023/03/21 07:34:19;;;;;;;4.20;2.97;;;17.00;1.00;;;;;;5071697;28;20169;-46
2023/03/21 07:36:45;;;;;;;3.70;3.20;;;17.80;1.00;;;;;;5071059;28;20235;-43
2023/03/21 07:39:10;;;;;;;3.03;2.77;;;18.70;1.00;;;;;;5071911;28;20455;-45
2023/03/21 07:41:36;;;;;;;4.20;2.90;;;19.60;1.00;;;;;;5073981;28;20548;-43
2023/03/21 07:44:02;;;;;;;3.40;3.07;;;20.60;1.00;;;;;;5072297;28;20226;-42
2023/03/21 07:46:28;;;;;;;2.90;2.33;;;21.30;1.00;;;;;;5076497;28;20240;-44
2023/03/21 07:48:53;;;;;;;3.60;3.10;;;22.10;1.00;;;;;;5076559;28;20415;-44
2023/03/21 07:51:19;;;;;;;3.97;2.90;;;22.90;1.00;;;;;;5072525;28;20174;-42
2023/03/21 07:53:47;;;;;;;2.57;2.37;;;23.40;1.00;;;;;;5071743;28;20177;-45
2023/03/21 07:56:13;;;;;;;2.90;2.47;;;24.10;1.00;;;;;;5072370;28;20238;-42
2023/03/21 07:58:38;;;;;;;2.40;1.93;;;24.70;1.00;;;;;;5073562;28;20416;-44
2023/03/21 08:01:04;;;;;;;2.43;2.17;;;25.30;1.00;;;;;;5073829;28;20177;-46
2023/03/21 08:03:32;;;;;;;2.10;1.67;;;26.00;1.00;;;;;;5073934;28;20188;-43
2023/03/21 08:06:00;;;;;;;4.20;2.10;;;26.80;1.00;;;;;;5075249;28;20276;-43
2023/03/21 08:08:26;;;;;;;2.87;1.80;;;27.60;1.00;;;;;;5074935;28;20407;-45
2023/03/21 08:10:51;;;;;;;2.60;1.80;;;28.30;1.00;;;;;;5076560;28;20849;-45
2023/03/21 08:13:17;;;;;;;3.83;1.53;;;29.00;1.00;;;;;;5076315;28;20745;-43
2023/03/21 08:15:43;;;;;;;3.73;2.10;;;29.50;1.00;;;;;;5076056;28;20188;-44
2023/03/21 08:18:09;;;;;;;3.43;2.30;;;30.00;1.00;;;;;;5075816;28;20173;-46
2023/03/21 08:20:35;;;;;;;2.20;1.70;;;30.00;1.00;;;;;;5075875;28;20259;-46
2023/03/21 08:23:01;;;;;;;2.97;2.00;;;30.20;1.00;;;;;;5074454;28;20509;-44
2023/03/21 08:25:26;;;;;;;2.13;1.53;;;31.00;1.00;;;;;;5072615;28;20577;-46
2023/03/21 08:27:52;;;;;;;2.13;1.63;;;31.60;1.00;;;;;;5072362;28;20419;-46
2023/03/21 08:30:22;;;;;;;2.33;1.80;;;32.20;1.00;;;;;;5073494;28;20185;-46
2023/03/21 08:32:48;;;;;;;2.70;1.30;;;32.90;1.00;;;;;;5075519;28;20731;-44
2023/03/21 08:35:16;;;;;;;2.03;1.60;;;33.40;1.00;;;;;;5073016;28;20417;-47
2023/03/21 08:37:41;;;;;;;1.83;1.53;;;33.80;1.00;;;;;;5074525;28;20161;-44
2023/03/21 08:40:12;;;;;;;2.50;1.80;;;34.10;1.00;;;;;;5075817;28;20450;-47
2023/03/21 08:42:39;;;;;;;2.07;1.73;;;34.80;1.00;;;;;;5074366;28;20636;-44
2023/03/21 08:45:05;;;;;;;2.00;1.40;;;35.60;1.00;;;;;;5072278;28;20402;-44
2023/03/21 08:47:31;;;;;;;1.70;1.40;;;36.20;1.00;;;;;;5073666;28;20447;-44
2023/03/21 08:49:57;;;;;;;1.70;1.30;;;36.60;1.00;;;;;;5073284;28;20427;-49
2023/03/21 08:52:24;;;;;;;1.87;1.40;;;36.40;1.00;;;;;;5073647;28;20177;-49
2023/03/21 08:54:50;;;;;;;4.23;1.70;;;35.90;1.00;;;;;;5073385;28;20516;-49
2023/03/21 08:57:15;;;;;;;2.20;1.57;;;35.10;1.00;;;;;;5072382;28;20867;-49
2023/03/21 08:59:41;;;;;;;1.63;1.30;;;34.70;1.00;;;;;;5072077;28;20471;-49
2023/03/21 09:02:07;;;;;;;2.00;1.77;;;34.80;1.00;;;;;;5069876;28;20169;-47
2023/03/21 09:04:33;;;;;;;1.80;1.33;;;35.40;1.00;;;;;;5074167;28;20173;-52
2023/03/21 09:07:02;;;;;;;2.20;1.40;;;36.00;1.00;;;;;;5073088;28;20198;-48
2023/03/21 09:09:28;;;;;;;1.77;1.50;;;36.10;1.00;;;;;;5072652;28;20422;-51
2023/03/21 09:11:53;;;;;;;2.20;1.53;;;36.70;1.00;;;;;;5074125;28;20454;-49
2023/03/21 09:14:19;;;;;;;1.80;1.20;;;36.90;1.00;;;;;;5073122;28;20186;-49
2023/03/21 09:16:44;;;;;;;1.83;1.50;;;37.00;1.00;;;;;;5073519;28;20471;-48
2023/03/21 09:19:11;;;;;;;1.97;1.63;;;37.20;1.00;;;;;;5073250;28;20193;-49
2023/03/21 09:21:38;;;;;;;2.03;1.20;;;37.30;1.00;;;;;;5073706;28;20189;-47
2023/03/21 09:24:04;;;;;;;1.67;1.40;;;37.50;1.00;;;;;;5072503;28;20502;-50
2023/03/21 09:26:30;;;;;;;1.83;1.40;;;37.40;1.00;;;;;;5072657;28;20482;-48
2023/03/21 09:28:57;;;;;;;1.97;1.47;;;37.50;1.00;;;;;;5074765;28;20805;-47
2023/03/21 09:31:23;;;;;;;1.73;1.33;;;37.60;1.00;;;;;;5075305;28;20871;-49
2023/03/21 09:33:50;;;;;;;1.80;1.33;;;37.70;1.00;;;;;;5072837;28;20948;-45
2023/03/21 09:36:18;;;;;;;1.77;1.67;;;37.60;1.00;;;;;;5072504;28;20436;-47
2023/03/21 09:38:44;;;;;;;1.90;1.70;;;37.50;1.00;;;;;;5074708;28;20550;-47
2023/03/21 09:41:36;;;;;;;1.63;1.23;;;37.20;1.00;;;;;;5075387;28;20450;-47
2023/03/21 09:44:23;;;;;;;2.80;1.77;;;36.80;1.00;;;;;;5075550;28;20407;-47
2023/03/21 09:46:55;;;;;;;2.30;1.30;;;36.70;1.00;;;;;;5076390;28;20419;-48
2023/03/21 09:49:31;;;;;;;2.10;1.90;;;36.30;1.00;;;;;;5074906;28;20411;-48
2023/03/21 09:52:04;;;;;;;1.60;1.30;;;35.80;1.00;;;;;;5075712;28;20833;-46
2023/03/21 09:54:36;;;;;;;2.90;1.80;;;35.40;1.00;;;;;;5074095;28;20472;-48
2023/03/21 09:57:20;;;;;;;1.43;1.23;;;35.10;1.00;;;;;;5074196;28;20428;-48
2023/03/21 09:59:48;;;;;;;1.53;1.17;;;34.70;1.00;;;;;;5072702;28;20437;-46
2023/03/21 10:02:35;;;;;;;1.93;1.43;;;34.40;99.90;;;;;;5074070;28;20920;-47
2023/03/21 10:05:08;;;;;;;2.87;1.80;;;34.10;99.90;;;;;;5075245;28;20397;-46
2023/03/21 10:07:39;;;;;;;1.40;1.20;;;34.00;99.90;;;;;;5073487;28;20985;-45
2023/03/21 10:10:06;;;;;;;1.93;1.63;;;34.00;99.90;;;;;;5074734;28;20446;-48
2023/03/21 10:12:32;;;;;;;1.80;1.27;;;34.00;99.90;;;;;;5074380;28;20401;-49
2023/03/21 10:14:59;;;;;;;1.40;1.17;;;34.30;99.90;;;;;;5076255;28;20423;-47
2023/03/21 10:17:39;;;;;;;1.43;1.33;;;34.60;99.90;;;;;;5073129;28;20420;-47
2023/03/21 10:20:24;;;;;;;1.70;1.60;;;34.60;99.90;;;;;;5074555;28;20848;-46
2023/03/21 10:22:54;;;;;;;1.57;1.27;;;34.50;99.90;;;;;;5073958;28;20418;-47
2023/03/21 10:25:36;;;;;;;1.83;1.50;;;34.40;99.90;;;;;;5075900;28;20480;-46
2023/03/21 10:28:05;;;;;;;1.50;1.20;;;34.40;99.90;;;;;;5073496;28;20741;-48
2023/03/21 10:30:45;;;;;;;1.63;1.27;;;34.20;99.90;;;;;;5056174;28;20431;-47
2023/03/21 10:33:24;;;;;;;1.60;1.47;;;34.10;99.90;;;;;;5071899;28;20462;-48
2023/03/21 10:35:57;;;;;;;1.40;1.10;;;33.90;99.90;;;;;;5068669;28;20435;-48
2023/03/21 10:38:24;;;;;;;3.60;1.10;;;33.80;99.90;;;;;;5070180;28;20408;-48
2023/03/21 10:40:50;;;;;;;1.70;1.50;;;33.60;99.90;;;;;;5069160;28;20454;-51
2023/03/21 10:43:24;;;;;;;1.60;1.20;;;33.30;99.90;;;;;;5071482;28;20434;-49
2023/03/21 10:45:51;;;;;;;1.70;1.20;;;33.00;99.90;;;;;;5072481;28;20394;-48
2023/03/21 10:48:18;;;;;;;2.67;1.33;;;32.90;99.90;;;;;;5072452;28;20751;-48
2023/03/21 10:50:47;;;;;;;1.87;1.10;;;32.70;99.90;;;;;;5071922;28;20427;-50
2023/03/21 10:53:48;;;;;;;2.00;1.50;;;32.50;99.90;;;;;;5073780;28;20430;-48
2023/03/21 10:56:14;;;;;;;2.40;1.90;;;32.20;99.90;;;;;;5057835;28;20434;-47
2023/03/21 10:58:49;;;;;;;2.00;1.63;;;32.00;99.90;;;;;;5071684;28;20522;-47
2023/03/21 11:01:29;;;;;;;1.93;1.73;;;31.70;99.90;;;;;;5072995;28;20176;-49
2023/03/21 11:03:57;;;;;;;2.20;2.00;;;31.50;99.90;;;;;;5072717;28;20418;-47
2023/03/21 11:06:30;;;;;;;2.60;2.03;;;31.30;99.90;;;;;;5070783;28;20479;-50
2023/03/21 11:08:59;;;;;;;2.23;1.73;;;30.90;99.90;;;;;;5070720;28;20415;-47
2023/03/21 11:11:26;;;;;;;2.40;2.10;;;30.50;99.90;;;;;;5072043;28;20408;-47
2023/03/21 11:14:05;;;;;;;1.70;1.60;;;30.20;99.90;;;;;;5074256;28;20409;-49
2023/03/21 11:16:39;;;;;;;3.00;2.13;;;29.80;99.90;;;;;;5075873;28;20401;-47
2023/03/21 11:19:16;;;;;;;1.77;1.63;;;29.30;99.90;;;;;;5075349;28;20493;-48
2023/03/21 11:21:42;;;;;;;2.70;2.50;;;28.90;99.90;;;;;;5085310;28;20503;-48
2023/03/21 11:24:15;;;;;;;2.10;1.90;;;28.60;99.90;;;;;;5098463;28;20431;-48
2023/03/21 11:26:43;;;;;;;2.80;2.47;;;28.40;99.90;;;;;;5093841;28;20763;-48
2023/03/21 11:29:21;;;;;;;2.80;2.03;;;28.30;99.90;;;;;;5097175;28;20495;-47
2023/03/21 11:31:47;;;;;;;1.97;1.73;;;28.10;99.90;;;;;;5091478;28;20445;-48
2023/03/21 11:34:30;;;;;;;2.37;2.10;;;27.90;99.90;;;;;;5082935;28;20427;-47
2023/03/21 11:37:01;;;;;;;1.80;1.70;;;27.80;99.90;;;;;;5095329;28;20426;-50
2023/03/21 11:39:31;;;;;;;1.60;1.50;;;27.70;99.90;;;;;;5093381;28;20522;-49
2023/03/21 11:41:57;;;;;;;2.67;1.80;;;27.60;99.90;;;;;;5095860;28;20419;-48
2023/03/21 11:44:26;;;;;;;1.53;1.30;;;27.50;99.90;;;;;;5096986;28;20428;-47
2023/03/21 11:46:52;;;;;;;2.33;1.93;;;27.30;99.90;;;;;;5095637;28;20180;-48
2023/03/21 11:49:19;;;;;;;1.50;1.30;;;27.30;99.90;;;;;;5095741;28;20669;-49
2023/03/21 11:52:12;;;;;;;3.27;1.80;;;27.20;99.90;;;;;;5095169;28;20204;-49
2023/03/21 11:54:56;;;;;;;1.90;1.80;;;27.10;99.90;;;;;;5094290;28;20852;-47
2023/03/21 11:57:35;;;;;;;1.80;1.63;;;27.00;99.90;;;;;;5094348;28;20736;-49
2023/03/21 12:00:16;;;;;;;2.73;1.87;;;26.90;99.90;;;;;;5092665;28;20472;-51
2023/03/21 12:03:22;;;;;;;4.23;2.23;;;26.80;99.90;;;;;;5092991;28;20432;-48
2023/03/21 12:05:53;;;;;;;5.33;2.17;;;26.80;99.90;;;;;;5061432;28;20744;-50
2023/03/21 12:08:33;;;;;;;7.23;2.20;;;26.80;99.90;;;;;;5094699;28;20803;-48
2023/03/21 12:11:12;;;;;;;2.97;2.30;;;26.60;99.90;;;;;;5093580;28;20432;-47
2023/03/21 12:13:47;;;;;;;4.93;1.80;;;26.60;99.90;;;;;;5095554;28;20418;-46
2023/03/21 12:16:30;;;;;;;2.03;1.50;;;26.60;99.90;;;;;;5093658;28;20517;-48
2023/03/21 12:19:14;;;;;;;3.77;1.70;;;26.60;99.90;;;;;;5096108;28;20493;-46
2023/03/21 12:21:59;;;;;;;2.00;1.40;;;26.60;99.90;;;;;;5092867;28;20476;-48
2023/03/21 12:24:53;;;;;;;2.37;1.50;;;26.70;99.90;;;;;;5092831;28;20752;-48
2023/03/21 12:27:23;;;;;;;2.23;1.40;;;26.80;99.90;;;;;;5095685;28;20531;-48
2023/03/21 12:30:08;;;;;;;1.77;1.60;;;26.90;99.90;;;;;;5096350;28;20426;-49
2023/03/21 12:33:04;;;;;;;3.40;1.63;;;27.10;99.90;;;;;;5095786;28;20399;-46
2023/03/21 12:35:56;;;;;;;2.10;1.33;;;27.40;99.90;;;;;;5093104;28;20400;-48
2023/03/21 12:38:30;;;;;;;2.10;1.50;;;27.60;99.90;;;;;;5093416;28;20415;-47
2023/03/21 12:40:56;;;;;;;1.90;1.57;;;27.80;99.90;;;;;;5094376;28;20448;-46
2023/03/21 12:43:28;;;;;;;1.60;1.40;;;28.10;99.90;;;;;;5094913;28;20422;-47
2023/03/21 12:45:59;;;;;;;1.77;1.30;;;28.50;99.90;;;;;;5094427;28;20433;-48
2023/03/21 12:48:40;;;;;;;2.47;1.60;;;28.80;99.90;;;;;;5091141;28;20854;-50
2023/03/21 12:51:13;;;;;;;1.77;1.27;;;29.00;99.90;;;;;;5094493;28;20621;-49
2023/03/21 12:53:42;;;;;;;3.30;1.53;;;29.20;99.90;;;;;;5092346;28;20775;-48
2023/03/21 12:56:22;;;;;;;1.70;1.40;;;29.50;99.90;;;;;;5091475;28;20418;-50
2023/03/21 12:58:53;;;;;;;2.20;1.80;;;29.50;99.90;;;;;;5091154;28;20446;-50
2023/03/21 13:01:20;;;;;;;1.70;1.60;;;29.70;99.90;;;;;;5092626;28;20567;-46
2023/03/21 13:04:09;;;;;;;1.30;0.87;;;29.90;99.90;;;;;;5090167;28;20475;-50
2023/03/21 13:06:36;;;;;;;2.20;1.70;;;30.00;99.90;;;;;;5091351;28;20912;-48
2023/03/21 13:09:12;;;;;;;2.27;1.70;;;30.20;99.90;;;;;;5092253;28;20434;-46
2023/03/21 13:11:41;;;;;;;1.60;1.20;;;30.20;99.90;;;;;;5075235;28;20463;-52
2023/03/21 13:14:14;;;;;;;1.90;1.10;;;30.60;99.90;;;;;;5093470;28;20404;-50